In Rescue
 
Open Full Screen Window  High Contrast Mode
Wind Gusting 00 knots
09
October 25, 2021 12:05 PM PDT
Weather Information
Wind Direction
  260 °
Wind Speed
  09 kt (10 mph)
Wind Gust
  00 kt (0 mph)
Altimeter
29.85 in
Visibility
10 SM
Temperature
16° C
61° F
Dewpoint
09° C
48° F
Humidity
63%
1hr Rain Fall
00.00 in.
24hr Rain Fall
01.67 in.
Sky Condition
Clear
VFR

METAR KSQL 251905Z AUTO 26009KT 10SM CLR 16/09 A2985 RMK AO2

FAA Disclaimer: The data displayed is for advisory purposes only and is not to be used for flight planning or operations.